sensor_id;sensor_type;location;lat;lon;timestamp;P1;durP1;ratioP1;P2;durP2;ratioP2
34988;SDS011;21192;40.182;44.516;2023-02-28T00:00:12;34.20;;;22.50;;
34988;SDS011;21192;40.182;44.516;2023-02-28T00:02:40;33.75;;;21.50;;
34988;SDS011;21192;40.182;44.516;2023-02-28T00:05:07;34.72;;;21.55;;
34988;SDS011;21192;40.182;44.516;2023-02-28T00:07:35;34.63;;;21.50;;
34988;SDS011;21192;40.182;44.516;2023-02-28T00:10:02;39.15;;;22.45;;
34988;SDS011;21192;40.182;44.516;2023-02-28T00:12:29;38.88;;;20.92;;
34988;SDS011;21192;40.182;44.516;2023-02-28T00:14:55;37.10;;;22.02;;
34988;SDS011;21192;40.182;44.516;2023-02-28T00:17:20;38.90;;;22.23;;
34988;SDS011;21192;40.182;44.516;2023-02-28T00:19:47;35.40;;;21.90;;
34988;SDS011;21192;40.182;44.516;2023-02-28T00:22:14;34.38;;;22.67;;
34988;SDS011;21192;40.182;44.516;2023-02-28T00:24:41;36.63;;;22.02;;
34988;SDS011;21192;40.182;44.516;2023-02-28T00:27:07;41.53;;;22.60;;
34988;SDS011;21192;40.182;44.516;2023-02-28T00:29:32;42.30;;;22.02;;
34988;SDS011;21192;40.182;44.516;2023-02-28T00:31:58;34.55;;;22.40;;
34988;SDS011;21192;40.182;44.516;2023-02-28T00:34:24;38.10;;;21.60;;
34988;SDS011;21192;40.182;44.516;2023-02-28T00:36:50;35.15;;;21.50;;
34988;SDS011;21192;40.182;44.516;2023-02-28T00:39:16;40.85;;;22.30;;
34988;SDS011;21192;40.182;44.516;2023-02-28T00:41:42;35.25;;;21.73;;
34988;SDS011;21192;40.182;44.516;2023-02-28T00:44:08;37.13;;;22.35;;
34988;SDS011;21192;40.182;44.516;2023-02-28T00:46:34;36.40;;;21.90;;
34988;SDS011;21192;40.182;44.516;2023-02-28T00:49:00;35.63;;;20.60;;
34988;SDS011;21192;40.182;44.516;2023-02-28T00:51:26;33.75;;;23.33;;
34988;SDS011;21192;40.182;44.516;2023-02-28T00:53:51;36.40;;;21.20;;
34988;SDS011;21192;40.182;44.516;2023-02-28T00:56:17;33.97;;;19.88;;
34988;SDS011;21192;40.182;44.516;2023-02-28T00:58:43;36.15;;;21.77;;
34988;SDS011;21192;40.182;44.516;2023-02-28T01:01:09;38.95;;;21.88;;
34988;SDS011;21192;40.182;44.516;2023-02-28T01:03:35;34.42;;;21.17;;
34988;SDS011;21192;40.182;44.516;2023-02-28T01:06:01;34.95;;;21.67;;
34988;SDS011;21192;40.182;44.516;2023-02-28T01:08:27;34.40;;;20.75;;
34988;SDS011;21192;40.182;44.516;2023-02-28T01:10:53;30.80;;;19.08;;
34988;SDS011;21192;40.182;44.516;2023-02-28T01:13:19;31.15;;;21.65;;
34988;SDS011;21192;40.182;44.516;2023-02-28T01:15:46;31.70;;;19.75;;
34988;SDS011;21192;40.182;44.516;2023-02-28T01:18:18;31.58;;;20.25;;
34988;SDS011;21192;40.182;44.516;2023-02-28T01:20:45;36.38;;;20.80;;
34988;SDS011;21192;40.182;44.516;2023-02-28T01:23:11;33.15;;;19.85;;
34988;SDS011;21192;40.182;44.516;2023-02-28T01:25:37;32.38;;;20.48;;
34988;SDS011;21192;40.182;44.516;2023-02-28T01:28:03;30.25;;;19.55;;
34988;SDS011;21192;40.182;44.516;2023-02-28T01:30:30;27.02;;;19.17;;
34988;SDS011;21192;40.182;44.516;2023-02-28T01:32:56;30.40;;;21.08;;
34988;SDS011;21192;40.182;44.516;2023-02-28T01:35:22;36.53;;;21.42;;
34988;SDS011;21192;40.182;44.516;2023-02-28T01:37:47;35.75;;;21.92;;
34988;SDS011;21192;40.182;44.516;2023-02-28T01:40:13;33.42;;;20.15;;
34988;SDS011;21192;40.182;44.516;2023-02-28T01:42:39;32.42;;;20.73;;
34988;SDS011;21192;40.182;44.516;2023-02-28T01:47:52;31.90;;;20.13;;
34988;SDS011;21192;40.182;44.516;2023-02-28T01:50:26;35.17;;;21.40;;
34988;SDS011;21192;40.182;44.516;2023-02-28T01:52:55;34.45;;;20.70;;
34988;SDS011;21192;40.182;44.516;2023-02-28T01:55:25;34.42;;;20.90;;
34988;SDS011;21192;40.182;44.516;2023-02-28T01:57:54;32.45;;;20.77;;
34988;SDS011;21192;40.182;44.516;2023-02-28T02:00:23;32.30;;;21.23;;
34988;SDS011;21192;40.182;44.516;2023-02-28T02:02:53;34.67;;;20.58;;
34988;SDS011;21192;40.182;44.516;2023-02-28T02:05:23;32.25;;;19.83;;
34988;SDS011;21192;40.182;44.516;2023-02-28T02:08:12;30.75;;;20.27;;
34988;SDS011;21192;40.182;44.516;2023-02-28T02:16:00;35.90;;;21.02;;
34988;SDS011;21192;40.182;44.516;2023-02-28T02:18:52;33.63;;;20.17;;
34988;SDS011;21192;40.182;44.516;2023-02-28T02:35:56;29.33;;;20.45;;
34988;SDS011;21192;40.182;44.516;2023-02-28T02:38:42;34.60;;;20.00;;
34988;SDS011;21192;40.182;44.516;2023-02-28T02:41:56;35.33;;;18.27;;
34988;SDS011;21192;40.182;44.516;2023-02-28T02:44:26;29.20;;;18.50;;
34988;SDS011;21192;40.182;44.516;2023-02-28T02:47:03;29.70;;;19.40;;
34988;SDS011;21192;40.182;44.516;2023-02-28T02:49:35;29.00;;;19.55;;
34988;SDS011;21192;40.182;44.516;2023-02-28T02:52:04;33.33;;;20.30;;
34988;SDS011;21192;40.182;44.516;2023-02-28T02:54:40;30.92;;;19.73;;
34988;SDS011;21192;40.182;44.516;2023-02-28T02:57:11;30.17;;;20.27;;
34988;SDS011;21192;40.182;44.516;2023-02-28T02:59:41;30.58;;;19.83;;
34988;SDS011;21192;40.182;44.516;2023-02-28T03:02:10;36.10;;;20.42;;
34988;SDS011;21192;40.182;44.516;2023-02-28T03:04:42;35.28;;;19.35;;
34988;SDS011;21192;40.182;44.516;2023-02-28T03:07:11;30.48;;;18.52;;
34988;SDS011;21192;40.182;44.516;2023-02-28T03:09:37;32.60;;;19.30;;
34988;SDS011;21192;40.182;44.516;2023-02-28T03:12:03;28.02;;;17.95;;
34988;SDS011;21192;40.182;44.516;2023-02-28T03:17:23;29.20;;;18.17;;
34988;SDS011;21192;40.182;44.516;2023-02-28T03:20:26;32.45;;;18.75;;
34988;SDS011;21192;40.182;44.516;2023-02-28T03:33:34;25.63;;;16.83;;
34988;SDS011;21192;40.182;44.516;2023-02-28T03:36:13;30.48;;;18.27;;
34988;SDS011;21192;40.182;44.516;2023-02-28T03:39:05;27.95;;;16.67;;
34988;SDS011;21192;40.182;44.516;2023-02-28T03:44:14;30.48;;;17.70;;
34988;SDS011;21192;40.182;44.516;2023-02-28T03:46:52;30.40;;;16.98;;
34988;SDS011;21192;40.182;44.516;2023-02-28T03:49:27;29.35;;;17.50;;
34988;SDS011;21192;40.182;44.516;2023-02-28T03:52:00;29.67;;;17.00;;
34988;SDS011;21192;40.182;44.516;2023-02-28T03:54:32;26.00;;;16.35;;
34988;SDS011;21192;40.182;44.516;2023-02-28T03:57:05;29.92;;;17.40;;
34988;SDS011;21192;40.182;44.516;2023-02-28T04:02:04;31.52;;;17.85;;
34988;SDS011;21192;40.182;44.516;2023-02-28T04:04:30;35.15;;;19.77;;
34988;SDS011;21192;40.182;44.516;2023-02-28T04:07:04;36.42;;;19.73;;
34988;SDS011;21192;40.182;44.516;2023-02-28T04:09:32;31.75;;;18.20;;
34988;SDS011;21192;40.182;44.516;2023-02-28T04:11:58;36.90;;;18.45;;
34988;SDS011;21192;40.182;44.516;2023-02-28T04:14:24;37.55;;;19.70;;
34988;SDS011;21192;40.182;44.516;2023-02-28T04:16:51;35.28;;;19.15;;
34988;SDS011;21192;40.182;44.516;2023-02-28T04:19:17;32.33;;;20.52;;
34988;SDS011;21192;40.182;44.516;2023-02-28T04:21:45;34.90;;;20.40;;
34988;SDS011;21192;40.182;44.516;2023-02-28T04:24:17;35.72;;;21.40;;
34988;SDS011;21192;40.182;44.516;2023-02-28T04:26:45;35.85;;;20.58;;
34988;SDS011;21192;40.182;44.516;2023-02-28T04:29:13;40.03;;;21.33;;
34988;SDS011;21192;40.182;44.516;2023-02-28T04:31:43;40.35;;;22.27;;
34988;SDS011;21192;40.182;44.516;2023-02-28T04:34:09;38.45;;;21.00;;
34988;SDS011;21192;40.182;44.516;2023-02-28T04:36:34;45.60;;;23.08;;
34988;SDS011;21192;40.182;44.516;2023-02-28T04:39:00;47.17;;;24.33;;
34988;SDS011;21192;40.182;44.516;2023-02-28T04:41:26;38.20;;;23.05;;
34988;SDS011;21192;40.182;44.516;2023-02-28T04:43:52;45.05;;;22.95;;
34988;SDS011;21192;40.182;44.516;2023-02-28T04:46:18;38.55;;;23.38;;
34988;SDS011;21192;40.182;44.516;2023-02-28T04:48:45;51.55;;;24.75;;
34988;SDS011;21192;40.182;44.516;2023-02-28T04:51:11;39.50;;;25.70;;
34988;SDS011;21192;40.182;44.516;2023-02-28T04:53:39;46.95;;;26.42;;
34988;SDS011;21192;40.182;44.516;2023-02-28T04:56:05;48.17;;;27.17;;
34988;SDS011;21192;40.182;44.516;2023-02-28T04:58:32;42.85;;;27.65;;
34988;SDS011;21192;40.182;44.516;2023-02-28T05:01:02;44.47;;;28.38;;
34988;SDS011;21192;40.182;44.516;2023-02-28T05:03:30;42.20;;;27.70;;
34988;SDS011;21192;40.182;44.516;2023-02-28T05:05:55;51.85;;;29.25;;
34988;SDS011;21192;40.182;44.516;2023-02-28T05:08:21;45.70;;;27.52;;
34988;SDS011;21192;40.182;44.516;2023-02-28T05:10:47;46.33;;;26.92;;
34988;SDS011;21192;40.182;44.516;2023-02-28T05:13:13;50.42;;;27.88;;
34988;SDS011;21192;40.182;44.516;2023-02-28T05:15:39;46.33;;;25.52;;
34988;SDS011;21192;40.182;44.516;2023-02-28T05:18:05;39.55;;;25.30;;
34988;SDS011;21192;40.182;44.516;2023-02-28T05:20:31;41.15;;;25.73;;
34988;SDS011;21192;40.182;44.516;2023-02-28T05:22:57;43.30;;;25.10;;
34988;SDS011;21192;40.182;44.516;2023-02-28T05:25:25;42.30;;;24.45;;
34988;SDS011;21192;40.182;44.516;2023-02-28T05:27:51;47.28;;;25.80;;
34988;SDS011;21192;40.182;44.516;2023-02-28T05:30:17;42.22;;;23.55;;
34988;SDS011;21192;40.182;44.516;2023-02-28T05:32:42;42.55;;;24.52;;
34988;SDS011;21192;40.182;44.516;2023-02-28T05:35:09;40.25;;;25.65;;
34988;SDS011;21192;40.182;44.516;2023-02-28T05:37:36;42.22;;;25.60;;
34988;SDS011;21192;40.182;44.516;2023-02-28T05:40:03;42.33;;;25.27;;
34988;SDS011;21192;40.182;44.516;2023-02-28T05:42:37;37.67;;;25.13;;
34988;SDS011;21192;40.182;44.516;2023-02-28T05:45:03;47.50;;;26.08;;
34988;SDS011;21192;40.182;44.516;2023-02-28T05:47:30;37.30;;;25.85;;
34988;SDS011;21192;40.182;44.516;2023-02-28T05:49:56;36.33;;;25.75;;
34988;SDS011;21192;40.182;44.516;2023-02-28T05:52:22;52.78;;;32.38;;
34988;SDS011;21192;40.182;44.516;2023-02-28T05:54:48;54.53;;;34.63;;
34988;SDS011;21192;40.182;44.516;2023-02-28T05:57:14;51.75;;;36.00;;
34988;SDS011;21192;40.182;44.516;2023-02-28T05:59:40;62.45;;;37.25;;
34988;SDS011;21192;40.182;44.516;2023-02-28T06:02:08;64.22;;;40.28;;
34988;SDS011;21192;40.182;44.516;2023-02-28T06:04:37;67.82;;;41.10;;
34988;SDS011;21192;40.182;44.516;2023-02-28T06:07:03;81.03;;;46.05;;
34988;SDS011;21192;40.182;44.516;2023-02-28T06:09:29;82.20;;;47.53;;
34988;SDS011;21192;40.182;44.516;2023-02-28T06:11:57;88.85;;;48.72;;
34988;SDS011;21192;40.182;44.516;2023-02-28T06:14:23;105.75;;;49.33;;
34988;SDS011;21192;40.182;44.516;2023-02-28T06:16:49;105.20;;;48.05;;
34988;SDS011;21192;40.182;44.516;2023-02-28T06:19:15;89.28;;;47.10;;
34988;SDS011;21192;40.182;44.516;2023-02-28T06:21:41;80.70;;;46.05;;
34988;SDS011;21192;40.182;44.516;2023-02-28T06:24:07;91.38;;;44.40;;
34988;SDS011;21192;40.182;44.516;2023-02-28T06:26:33;86.68;;;45.08;;
34988;SDS011;21192;40.182;44.516;2023-02-28T06:28:59;75.30;;;44.53;;
34988;SDS011;21192;40.182;44.516;2023-02-28T06:31:26;82.78;;;43.85;;
34988;SDS011;21192;40.182;44.516;2023-02-28T06:33:54;68.50;;;42.90;;
34988;SDS011;21192;40.182;44.516;2023-02-28T06:36:20;81.97;;;43.35;;
34988;SDS011;21192;40.182;44.516;2023-02-28T06:38:46;81.82;;;44.13;;
34988;SDS011;21192;40.182;44.516;2023-02-28T06:41:16;76.03;;;44.30;;
34988;SDS011;21192;40.182;44.516;2023-02-28T06:43:43;65.50;;;45.97;;
34988;SDS011;21192;40.182;44.516;2023-02-28T06:46:11;74.00;;;45.88;;
34988;SDS011;21192;40.182;44.516;2023-02-28T06:48:39;82.95;;;48.10;;
34988;SDS011;21192;40.182;44.516;2023-02-28T06:51:09;80.63;;;47.22;;
34988;SDS011;21192;40.182;44.516;2023-02-28T06:53:39;76.95;;;47.10;;
34988;SDS011;21192;40.182;44.516;2023-02-28T06:56:06;86.00;;;48.92;;
34988;SDS011;21192;40.182;44.516;2023-02-28T06:58:33;74.32;;;47.97;;
34988;SDS011;21192;40.182;44.516;2023-02-28T07:00:59;72.30;;;46.75;;
34988;SDS011;21192;40.182;44.516;2023-02-28T07:03:25;70.13;;;45.95;;
34988;SDS011;21192;40.182;44.516;2023-02-28T07:05:51;79.05;;;47.83;;
34988;SDS011;21192;40.182;44.516;2023-02-28T07:08:17;71.30;;;44.65;;
34988;SDS011;21192;40.182;44.516;2023-02-28T07:10:43;76.45;;;48.03;;
34988;SDS011;21192;40.182;44.516;2023-02-28T07:13:09;67.45;;;48.38;;
34988;SDS011;21192;40.182;44.516;2023-02-28T07:15:36;69.82;;;44.70;;
34988;SDS011;21192;40.182;44.516;2023-02-28T07:18:02;78.95;;;48.33;;
34988;SDS011;21192;40.182;44.516;2023-02-28T07:20:28;84.75;;;48.05;;
34988;SDS011;21192;40.182;44.516;2023-02-28T07:22:55;80.50;;;48.05;;
34988;SDS011;21192;40.182;44.516;2023-02-28T07:25:23;81.57;;;48.17;;
34988;SDS011;21192;40.182;44.516;2023-02-28T07:27:51;82.40;;;48.63;;
34988;SDS011;21192;40.182;44.516;2023-02-28T07:30:17;71.50;;;47.58;;
34988;SDS011;21192;40.182;44.516;2023-02-28T07:32:43;84.35;;;47.40;;
34988;SDS011;21192;40.182;44.516;2023-02-28T07:35:09;82.95;;;49.58;;
34988;SDS011;21192;40.182;44.516;2023-02-28T07:37:35;80.05;;;48.45;;
34988;SDS011;21192;40.182;44.516;2023-02-28T07:40:05;81.53;;;48.78;;
34988;SDS011;21192;40.182;44.516;2023-02-28T07:42:37;171.93;;;59.78;;
34988;SDS011;21192;40.182;44.516;2023-02-28T07:45:03;83.25;;;49.38;;
34988;SDS011;21192;40.182;44.516;2023-02-28T07:47:30;87.05;;;48.35;;
34988;SDS011;21192;40.182;44.516;2023-02-28T07:49:56;81.10;;;47.83;;
34988;SDS011;21192;40.182;44.516;2023-02-28T07:52:22;90.03;;;48.28;;
34988;SDS011;21192;40.182;44.516;2023-02-28T07:54:49;76.85;;;45.55;;
34988;SDS011;21192;40.182;44.516;2023-02-28T07:57:15;83.07;;;45.80;;
34988;SDS011;21192;40.182;44.516;2023-02-28T07:59:41;86.35;;;45.47;;
34988;SDS011;21192;40.182;44.516;2023-02-28T08:02:14;81.80;;;43.63;;
34988;SDS011;21192;40.182;44.516;2023-02-28T08:04:43;74.80;;;44.65;;
34988;SDS011;21192;40.182;44.516;2023-02-28T08:07:09;71.60;;;43.55;;
34988;SDS011;21192;40.182;44.516;2023-02-28T08:09:41;67.10;;;40.33;;
34988;SDS011;21192;40.182;44.516;2023-02-28T08:12:08;76.80;;;42.67;;
34988;SDS011;21192;40.182;44.516;2023-02-28T08:14:34;67.63;;;39.67;;
34988;SDS011;21192;40.182;44.516;2023-02-28T08:17:01;78.78;;;41.40;;
34988;SDS011;21192;40.182;44.516;2023-02-28T08:19:27;62.67;;;37.65;;
34988;SDS011;21192;40.182;44.516;2023-02-28T08:21:54;64.28;;;39.33;;
34988;SDS011;21192;40.182;44.516;2023-02-28T08:24:20;63.22;;;38.25;;
34988;SDS011;21192;40.182;44.516;2023-02-28T08:26:46;66.18;;;37.70;;
34988;SDS011;21192;40.182;44.516;2023-02-28T08:29:11;60.35;;;37.50;;
34988;SDS011;21192;40.182;44.516;2023-02-28T08:31:37;62.25;;;36.45;;
34988;SDS011;21192;40.182;44.516;2023-02-28T08:34:07;57.25;;;35.10;;
34988;SDS011;21192;40.182;44.516;2023-02-28T08:36:38;63.60;;;36.70;;
34988;SDS011;21192;40.182;44.516;2023-02-28T08:39:04;57.63;;;36.85;;
34988;SDS011;21192;40.182;44.516;2023-02-28T08:41:31;53.05;;;34.65;;
34988;SDS011;21192;40.182;44.516;2023-02-28T08:43:57;55.08;;;35.08;;
34988;SDS011;21192;40.182;44.516;2023-02-28T08:46:23;54.00;;;31.20;;
34988;SDS011;21192;40.182;44.516;2023-02-28T08:48:53;46.25;;;31.17;;
34988;SDS011;21192;40.182;44.516;2023-02-28T08:51:20;46.70;;;29.08;;
34988;SDS011;21192;40.182;44.516;2023-02-28T08:53:51;46.35;;;29.48;;
34988;SDS011;21192;40.182;44.516;2023-02-28T08:56:18;52.38;;;30.83;;
34988;SDS011;21192;40.182;44.516;2023-02-28T08:58:45;46.97;;;31.35;;
34988;SDS011;21192;40.182;44.516;2023-02-28T09:01:16;49.30;;;32.53;;
34988;SDS011;21192;40.182;44.516;2023-02-28T09:03:52;49.35;;;30.95;;
34988;SDS011;21192;40.182;44.516;2023-02-28T09:06:19;50.17;;;30.88;;
34988;SDS011;21192;40.182;44.516;2023-02-28T09:08:46;53.88;;;31.25;;
34988;SDS011;21192;40.182;44.516;2023-02-28T09:11:12;52.60;;;29.95;;
34988;SDS011;21192;40.182;44.516;2023-02-28T09:13:38;49.58;;;31.08;;
34988;SDS011;21192;40.182;44.516;2023-02-28T09:16:05;50.80;;;31.85;;
34988;SDS011;21192;40.182;44.516;2023-02-28T09:18:34;42.33;;;27.48;;
34988;SDS011;21192;40.182;44.516;2023-02-28T09:21:05;48.65;;;27.75;;
34988;SDS011;21192;40.182;44.516;2023-02-28T09:23:32;46.45;;;29.30;;
34988;SDS011;21192;40.182;44.516;2023-02-28T09:25:58;59.50;;;29.95;;
34988;SDS011;21192;40.182;44.516;2023-02-28T09:28:24;53.35;;;29.15;;
34988;SDS011;21192;40.182;44.516;2023-02-28T09:30:51;44.78;;;25.60;;
34988;SDS011;21192;40.182;44.516;2023-02-28T09:33:19;45.05;;;27.17;;
34988;SDS011;21192;40.182;44.516;2023-02-28T09:35:49;38.15;;;23.50;;
34988;SDS011;21192;40.182;44.516;2023-02-28T09:38:16;36.97;;;23.40;;
34988;SDS011;21192;40.182;44.516;2023-02-28T09:40:47;40.55;;;26.17;;
34988;SDS011;21192;40.182;44.516;2023-02-28T09:43:17;45.33;;;27.45;;
34988;SDS011;21192;40.182;44.516;2023-02-28T09:45:53;38.47;;;24.17;;
34988;SDS011;21192;40.182;44.516;2023-02-28T09:48:31;32.78;;;21.67;;
34988;SDS011;21192;40.182;44.516;2023-02-28T09:51:05;35.63;;;22.50;;
34988;SDS011;21192;40.182;44.516;2023-02-28T09:53:37;36.55;;;24.27;;
34988;SDS011;21192;40.182;44.516;2023-02-28T10:01:12;50.67;;;28.25;;
34988;SDS011;21192;40.182;44.516;2023-02-28T10:06:36;44.75;;;24.73;;
34988;SDS011;21192;40.182;44.516;2023-02-28T10:09:14;48.17;;;26.40;;
34988;SDS011;21192;40.182;44.516;2023-02-28T10:11:48;41.22;;;25.42;;
34988;SDS011;21192;40.182;44.516;2023-02-28T10:14:28;42.50;;;27.27;;
34988;SDS011;21192;40.182;44.516;2023-02-28T10:17:19;42.50;;;26.40;;
34988;SDS011;21192;40.182;44.516;2023-02-28T10:25:27;35.55;;;23.25;;
34988;SDS011;21192;40.182;44.516;2023-02-28T10:27:55;39.05;;;23.52;;
34988;SDS011;21192;40.182;44.516;2023-02-28T10:30:33;49.75;;;25.55;;
34988;SDS011;21192;40.182;44.516;2023-02-28T10:33:00;41.45;;;23.48;;
34988;SDS011;21192;40.182;44.516;2023-02-28T10:35:26;44.78;;;22.88;;
34988;SDS011;21192;40.182;44.516;2023-02-28T10:37:56;50.63;;;26.20;;
34988;SDS011;21192;40.182;44.516;2023-02-28T10:42:56;38.17;;;24.67;;
34988;SDS011;21192;40.182;44.516;2023-02-28T10:45:24;42.38;;;23.42;;
34988;SDS011;21192;40.182;44.516;2023-02-28T10:47:58;47.53;;;23.38;;
34988;SDS011;21192;40.182;44.516;2023-02-28T10:56:00;61.58;;;26.05;;
34988;SDS011;21192;40.182;44.516;2023-02-28T10:58:31;38.78;;;23.20;;
34988;SDS011;21192;40.182;44.516;2023-02-28T11:01:10;34.42;;;22.23;;
34988;SDS011;21192;40.182;44.516;2023-02-28T11:04:02;35.67;;;22.08;;
34988;SDS011;21192;40.182;44.516;2023-02-28T11:06:29;44.65;;;22.38;;
34988;SDS011;21192;40.182;44.516;2023-02-28T11:08:58;50.70;;;24.52;;
34988;SDS011;21192;40.182;44.516;2023-02-28T11:11:42;38.17;;;23.77;;
34988;SDS011;21192;40.182;44.516;2023-02-28T11:14:21;40.75;;;23.20;;
34988;SDS011;21192;40.182;44.516;2023-02-28T11:16:49;43.70;;;24.77;;
34988;SDS011;21192;40.182;44.516;2023-02-28T11:19:20;41.28;;;24.10;;
34988;SDS011;21192;40.182;44.516;2023-02-28T11:22:02;42.67;;;24.58;;
34988;SDS011;21192;40.182;44.516;2023-02-28T11:24:43;36.67;;;24.73;;
34988;SDS011;21192;40.182;44.516;2023-02-28T11:29:50;67.07;;;28.25;;
34988;SDS011;21192;40.182;44.516;2023-02-28T11:32:18;39.58;;;25.88;;
34988;SDS011;21192;40.182;44.516;2023-02-28T11:34:47;44.95;;;25.35;;
34988;SDS011;21192;40.182;44.516;2023-02-28T11:37:27;38.00;;;23.58;;
34988;SDS011;21192;40.182;44.516;2023-02-28T11:39:54;46.03;;;25.40;;
34988;SDS011;21192;40.182;44.516;2023-02-28T11:48:35;48.42;;;29.90;;
34988;SDS011;21192;40.182;44.516;2023-02-28T11:51:10;54.47;;;29.23;;
34988;SDS011;21192;40.182;44.516;2023-02-28T11:59:05;42.70;;;25.95;;
34988;SDS011;21192;40.182;44.516;2023-02-28T12:09:53;51.35;;;28.88;;
34988;SDS011;21192;40.182;44.516;2023-02-28T12:20:16;50.25;;;26.42;;
34988;SDS011;21192;40.182;44.516;2023-02-28T12:22:55;41.10;;;24.60;;
34988;SDS011;21192;40.182;44.516;2023-02-28T12:28:18;60.35;;;27.15;;
34988;SDS011;21192;40.182;44.516;2023-02-28T12:30:54;58.25;;;28.48;;
34988;SDS011;21192;40.182;44.516;2023-02-28T12:33:26;48.30;;;26.85;;
34988;SDS011;21192;40.182;44.516;2023-02-28T12:35:59;48.88;;;26.55;;
34988;SDS011;21192;40.182;44.516;2023-02-28T12:43:34;61.13;;;28.70;;
34988;SDS011;21192;40.182;44.516;2023-02-28T12:46:10;57.45;;;28.02;;
34988;SDS011;21192;40.182;44.516;2023-02-28T12:48:50;46.88;;;27.45;;
34988;SDS011;21192;40.182;44.516;2023-02-28T12:51:21;46.67;;;26.70;;
34988;SDS011;21192;40.182;44.516;2023-02-28T13:04:45;63.47;;;29.55;;
34988;SDS011;21192;40.182;44.516;2023-02-28T13:10:05;47.75;;;27.58;;
34988;SDS011;21192;40.182;44.516;2023-02-28T13:12:32;59.75;;;27.38;;
34988;SDS011;21192;40.182;44.516;2023-02-28T13:15:16;63.08;;;29.98;;
34988;SDS011;21192;40.182;44.516;2023-02-28T13:17:48;56.10;;;27.83;;
34988;SDS011;21192;40.182;44.516;2023-02-28T13:20:47;47.58;;;25.85;;
34988;SDS011;21192;40.182;44.516;2023-02-28T13:23:35;73.05;;;31.08;;
34988;SDS011;21192;40.182;44.516;2023-02-28T13:26:12;58.05;;;28.05;;
34988;SDS011;21192;40.182;44.516;2023-02-28T13:31:18;50.92;;;27.17;;
34988;SDS011;21192;40.182;44.516;2023-02-28T13:36:27;59.83;;;30.42;;
34988;SDS011;21192;40.182;44.516;2023-02-28T13:38:59;60.22;;;28.33;;
34988;SDS011;21192;40.182;44.516;2023-02-28T13:44:07;46.55;;;26.23;;
34988;SDS011;21192;40.182;44.516;2023-02-28T13:49:23;55.67;;;28.30;;
34988;SDS011;21192;40.182;44.516;2023-02-28T13:52:12;51.38;;;27.55;;
34988;SDS011;21192;40.182;44.516;2023-02-28T13:57:44;46.72;;;25.63;;
34988;SDS011;21192;40.182;44.516;2023-02-28T14:03:27;48.78;;;27.58;;
34988;SDS011;21192;40.182;44.516;2023-02-28T14:09:49;47.22;;;28.17;;
34988;SDS011;21192;40.182;44.516;2023-02-28T14:11:45;56.22;;;27.98;;
34988;SDS011;21192;40.182;44.516;2023-02-28T14:16:59;49.72;;;27.67;;
34988;SDS011;21192;40.182;44.516;2023-02-28T14:19:30;57.75;;;29.08;;
34988;SDS011;21192;40.182;44.516;2023-02-28T14:38:17;54.05;;;28.95;;
34988;SDS011;21192;40.182;44.516;2023-02-28T14:40:47;53.10;;;31.13;;
34988;SDS011;21192;40.182;44.516;2023-02-28T14:43:26;53.88;;;28.42;;
34988;SDS011;21192;40.182;44.516;2023-02-28T14:46:02;49.63;;;28.92;;
34988;SDS011;21192;40.182;44.516;2023-02-28T14:48:31;66.65;;;31.75;;
34988;SDS011;21192;40.182;44.516;2023-02-28T14:50:59;53.90;;;32.50;;
34988;SDS011;21192;40.182;44.516;2023-02-28T14:53:27;62.75;;;33.15;;
34988;SDS011;21192;40.182;44.516;2023-02-28T14:55:55;68.53;;;33.38;;
34988;SDS011;21192;40.182;44.516;2023-02-28T15:00:50;64.63;;;33.95;;
34988;SDS011;21192;40.182;44.516;2023-02-28T15:06:04;64.18;;;36.15;;
34988;SDS011;21192;40.182;44.516;2023-02-28T15:08:37;70.22;;;38.70;;
34988;SDS011;21192;40.182;44.516;2023-02-28T15:13:50;78.03;;;39.60;;
34988;SDS011;21192;40.182;44.516;2023-02-28T15:16:20;74.90;;;38.45;;
34988;SDS011;21192;40.182;44.516;2023-02-28T15:19:00;72.97;;;41.38;;
34988;SDS011;21192;40.182;44.516;2023-02-28T15:21:36;75.60;;;40.05;;
34988;SDS011;21192;40.182;44.516;2023-02-28T15:26:59;79.40;;;42.35;;
34988;SDS011;21192;40.182;44.516;2023-02-28T15:29:47;77.07;;;41.35;;
34988;SDS011;21192;40.182;44.516;2023-02-28T15:32:35;70.97;;;41.85;;
34988;SDS011;21192;40.182;44.516;2023-02-28T15:35:19;72.10;;;43.05;;
34988;SDS011;21192;40.182;44.516;2023-02-28T15:37:52;71.15;;;41.53;;
34988;SDS011;21192;40.182;44.516;2023-02-28T15:40:29;69.03;;;39.33;;
34988;SDS011;21192;40.182;44.516;2023-02-28T15:45:33;61.80;;;37.75;;
34988;SDS011;21192;40.182;44.516;2023-02-28T15:48:03;73.68;;;39.17;;
34988;SDS011;21192;40.182;44.516;2023-02-28T15:50:41;63.17;;;38.08;;
34988;SDS011;21192;40.182;44.516;2023-02-28T15:53:11;75.88;;;39.13;;
34988;SDS011;21192;40.182;44.516;2023-02-28T15:55:40;68.07;;;37.83;;
34988;SDS011;21192;40.182;44.516;2023-02-28T15:58:08;73.22;;;41.60;;
34988;SDS011;21192;40.182;44.516;2023-02-28T16:00:38;73.03;;;39.83;;
34988;SDS011;21192;40.182;44.516;2023-02-28T16:06:09;68.97;;;41.67;;
34988;SDS011;21192;40.182;44.516;2023-02-28T16:08:55;85.22;;;45.47;;
34988;SDS011;21192;40.182;44.516;2023-02-28T16:11:21;84.93;;;43.88;;
34988;SDS011;21192;40.182;44.516;2023-02-28T16:13:47;87.03;;;45.70;;
34988;SDS011;21192;40.182;44.516;2023-02-28T16:16:16;113.20;;;61.50;;
34988;SDS011;21192;40.182;44.516;2023-02-28T16:18:43;115.40;;;64.00;;
34988;SDS011;21192;40.182;44.516;2023-02-28T16:21:09;118.57;;;59.55;;
34988;SDS011;21192;40.182;44.516;2023-02-28T16:23:34;97.22;;;50.10;;
34988;SDS011;21192;40.182;44.516;2023-02-28T16:26:00;110.78;;;54.83;;
34988;SDS011;21192;40.182;44.516;2023-02-28T16:28:29;88.90;;;46.75;;
34988;SDS011;21192;40.182;44.516;2023-02-28T16:31:01;90.20;;;49.90;;
34988;SDS011;21192;40.182;44.516;2023-02-28T16:33:29;101.75;;;52.38;;
34988;SDS011;21192;40.182;44.516;2023-02-28T16:35:56;117.32;;;56.97;;
34988;SDS011;21192;40.182;44.516;2023-02-28T16:38:22;111.82;;;57.13;;
34988;SDS011;21192;40.182;44.516;2023-02-28T16:40:50;128.02;;;60.78;;
34988;SDS011;21192;40.182;44.516;2023-02-28T16:43:17;129.90;;;62.83;;
34988;SDS011;21192;40.182;44.516;2023-02-28T16:45:47;122.57;;;60.13;;
34988;SDS011;21192;40.182;44.516;2023-02-28T16:48:14;124.55;;;61.67;;
34988;SDS011;21192;40.182;44.516;2023-02-28T16:50:41;134.65;;;60.10;;
34988;SDS011;21192;40.182;44.516;2023-02-28T16:53:09;137.80;;;63.67;;
34988;SDS011;21192;40.182;44.516;2023-02-28T16:55:35;124.20;;;61.67;;
34988;SDS011;21192;40.182;44.516;2023-02-28T16:58:02;122.88;;;61.92;;
34988;SDS011;21192;40.182;44.516;2023-02-28T17:00:30;127.88;;;61.80;;
34988;SDS011;21192;40.182;44.516;2023-02-28T17:02:58;120.95;;;60.10;;
34988;SDS011;21192;40.182;44.516;2023-02-28T17:05:24;120.60;;;58.50;;
34988;SDS011;21192;40.182;44.516;2023-02-28T17:07:51;121.05;;;61.05;;
34988;SDS011;21192;40.182;44.516;2023-02-28T17:10:18;114.70;;;59.63;;
34988;SDS011;21192;40.182;44.516;2023-02-28T17:12:46;124.30;;;62.20;;